Time;durP1;ratioP1;P1;durP2;ratioP2;P2;SDS_P1;SDS_P2;PMS_P1;PMS_P2;Temp;Humidity;BMP_temperature;BMP_pressure;BME280_temperature;BME280_humidity;BME280_pressure;Samples;Min_cycle;Max_cycle;Signal;HPM_P1;HPM_P2
2023/06/06 00:00:04;;;;;;;1.90;1.50;;;;;;;;;;4995411;28;20117;-63
2023/06/06 00:02:40;;;;;;;1.50;1.40;;;;;;;;;;4995451;28;20034;-63
2023/06/06 00:05:11;;;;;;;1.85;1.42;;;;;;;;;;4995107;28;20074;-63
2023/06/06 00:07:37;;;;;;;1.88;1.40;;;;;;;;;;4995147;28;20110;-63
2023/06/06 00:10:03;;;;;;;3.03;1.70;;;;;;;;;;4995050;28;20407;-63
2023/06/06 00:12:28;;;;;;;1.52;1.42;;;;;;;;;;4995572;28;20034;-63
2023/06/06 00:14:56;;;;;;;1.50;1.40;;;;;;;;;;4995140;28;20030;-63
2023/06/06 00:17:22;;;;;;;1.90;1.70;;;;;;;;;;4977760;28;20074;-63
2023/06/06 00:19:52;;;;;;;2.30;1.30;;;;;;;;;;4977166;28;20053;-63
2023/06/06 00:22:20;;;;;;;1.50;1.40;;;;;;;;;;4994629;28;20026;-63
2023/06/06 00:24:45;;;;;;;1.30;1.00;;;;;;;;;;4994885;28;20498;-62
2023/06/06 00:27:12;;;;;;;2.72;1.50;;;;;;;;;;4995013;28;20132;-62
2023/06/06 00:29:37;;;;;;;2.35;1.60;;;;;;;;;;4994904;28;20762;-62
2023/06/06 00:32:03;;;;;;;2.92;1.70;;;;;;;;;;4994640;28;20034;-62
2023/06/06 00:34:28;;;;;;;2.20;1.30;;;;;;;;;;4994843;28;20117;-62
2023/06/06 00:36:53;;;;;;;1.70;1.60;;;;;;;;;;4993581;28;20129;-63
2023/06/06 00:39:20;;;;;;;5.60;1.60;;;;;;;;;;4977105;28;20037;-63
2023/06/06 00:41:47;;;;;;;2.10;1.63;;;;;;;;;;4977066;28;20018;-63
2023/06/06 00:44:12;;;;;;;1.50;1.40;;;;;;;;;;4994706;28;20100;-61
2023/06/06 00:46:37;;;;;;;1.50;1.38;;;;;;;;;;4992640;28;20030;-61
2023/06/06 00:49:03;;;;;;;1.52;1.42;;;;;;;;;;4994952;28;20042;-63
2023/06/06 00:51:29;;;;;;;1.92;1.20;;;;;;;;;;4995655;28;20026;-63
2023/06/06 00:53:56;;;;;;;2.28;1.60;;;;;;;;;;4995815;28;20035;-63
2023/06/06 00:56:27;;;;;;;1.98;1.60;;;;;;;;;;4994818;28;20045;-63
2023/06/06 00:58:52;;;;;;;;;;;;;;;;;;4994905;28;20479;-63
2023/06/06 01:01:19;;;;;;;1.63;1.53;;;;;;;;;;4995601;28;19956;-63
2023/06/06 01:03:46;;;;;;;1.50;1.30;;;;;;;;;;4993183;28;20050;-63
2023/06/06 01:06:13;;;;;;;1.85;1.50;;;;;;;;;;4976138;28;20545;-63
2023/06/06 01:08:38;;;;;;;2.35;1.50;;;;;;;;;;4993847;28;20026;-63
2023/06/06 01:11:10;;;;;;;2.67;1.60;;;;;;;;;;4994126;28;20401;-63
2023/06/06 01:13:41;;;;;;;1.65;1.38;;;;;;;;;;4994174;28;20022;-63
2023/06/06 01:16:09;;;;;;;2.45;1.33;;;;;;;;;;4994209;28;20370;-65
2023/06/06 01:18:34;;;;;;;4.15;1.70;;;;;;;;;;4992657;28;20026;-63
2023/06/06 01:21:00;;;;;;;1.55;1.45;;;;;;;;;;4993984;28;20038;-63
2023/06/06 01:23:27;;;;;;;2.63;1.50;;;;;;;;;;4993982;28;20022;-63
2023/06/06 01:25:53;;;;;;;2.13;1.50;;;;;;;;;;4993655;28;20614;-63
2023/06/06 01:28:18;;;;;;;1.70;1.42;;;;;;;;;;4992468;28;20050;-63
2023/06/06 01:30:45;;;;;;;2.55;1.50;;;;;;;;;;4993547;28;20068;-64
2023/06/06 01:33:26;;;;;;;3.10;1.48;;;;;;;;;;4992056;28;20038;-62
2023/06/06 01:36:07;;;;;;;2.25;1.60;;;;;;;;;;4992278;28;20538;-62
2023/06/06 01:38:36;;;;;;;1.63;1.52;;;;;;;;;;4993420;28;20677;-62
2023/06/06 01:41:03;;;;;;;1.70;1.60;;;;;;;;;;4992194;28;20463;-62
2023/06/06 01:43:30;;;;;;;1.63;1.52;;;;;;;;;;4993301;28;20680;-62
2023/06/06 01:45:55;;;;;;;2.70;1.65;;;;;;;;;;4975605;28;20092;-62
2023/06/06 01:48:22;;;;;;;2.75;1.50;;;;;;;;;;4992097;28;20497;-62
2023/06/06 01:50:47;;;;;;;2.58;1.30;;;;;;;;;;4992820;28;20026;-62
2023/06/06 01:53:13;;;;;;;2.78;1.58;;;;;;;;;;4992197;28;20462;-61
2023/06/06 01:55:39;;;;;;;2.15;1.40;;;;;;;;;;4974905;28;20037;-61
2023/06/06 01:58:04;;;;;;;2.22;1.40;;;;;;;;;;4993421;28;20046;-61
2023/06/06 02:00:30;;;;;;;1.92;1.60;;;;;;;;;;4992089;28;20026;-61
2023/06/06 02:02:56;;;;;;;2.05;1.52;;;;;;;;;;4993234;28;20044;-61
2023/06/06 02:05:21;;;;;;;1.95;1.80;;;;;;;;;;4992960;28;20027;-63
2023/06/06 02:07:49;;;;;;;1.85;1.58;;;;;;;;;;4993120;28;20394;-63
2023/06/06 02:10:16;;;;;;;1.95;1.42;;;;;;;;;;4975412;28;20058;-63
2023/06/06 02:12:41;;;;;;;1.63;1.38;;;;;;;;;;4993141;28;20069;-63
2023/06/06 02:15:11;;;;;;;1.70;1.60;;;;;;;;;;4975553;28;20058;-64
2023/06/06 02:17:36;;;;;;;2.05;1.50;;;;;;;;;;4975388;28;20053;-65
2023/06/06 02:20:04;;;;;;;2.17;1.60;;;;;;;;;;4992478;28;20074;-64
2023/06/06 02:22:29;;;;;;;1.58;1.30;;;;;;;;;;4992919;28;20029;-64
2023/06/06 02:24:54;;;;;;;1.58;1.48;;;;;;;;;;4992445;28;20046;-63
2023/06/06 02:27:21;;;;;;;2.50;1.50;;;;;;;;;;4975413;28;20471;-63
2023/06/06 02:29:46;;;;;;;2.28;1.70;;;;;;;;;;4975091;28;20076;-63
2023/06/06 02:32:11;;;;;;;1.60;1.50;;;;;;;;;;4992739;28;20466;-63
2023/06/06 02:34:37;;;;;;;2.97;1.65;;;;;;;;;;4991424;28;20034;-63
2023/06/06 02:37:06;;;;;;;2.90;1.50;;;;;;;;;;4975198;28;20026;-63
2023/06/06 02:39:35;;;;;;;1.60;1.50;;;;;;;;;;4975309;28;20038;-63
2023/06/06 02:42:02;;;;;;;1.70;1.60;;;;;;;;;;4975183;28;20284;-63
2023/06/06 02:44:27;;;;;;;1.92;1.50;;;;;;;;;;4990386;28;20494;-64
2023/06/06 02:46:53;;;;;;;2.72;1.60;;;;;;;;;;4992166;28;20100;-64
2023/06/06 02:49:18;;;;;;;2.83;1.77;;;;;;;;;;4990626;28;20026;-64
2023/06/06 02:51:44;;;;;;;3.28;1.83;;;;;;;;;;4992284;28;20490;-65
2023/06/06 02:54:09;;;;;;;3.13;1.40;;;;;;;;;;4992339;28;20142;-64
2023/06/06 02:56:35;;;;;;;1.98;1.42;;;;;;;;;;4990434;28;20478;-64
2023/06/06 02:59:00;;;;;;;1.98;1.60;;;;;;;;;;4992120;28;20038;-65
2023/06/06 03:01:26;;;;;;;1.60;1.50;;;;;;;;;;4991143;28;20034;-64
2023/06/06 03:03:51;;;;;;;2.05;1.48;;;;;;;;;;4992557;28;20042;-64
2023/06/06 03:06:18;;;;;;;1.83;1.60;;;;;;;;;;4974824;28;20034;-64
2023/06/06 03:08:44;;;;;;;2.30;1.33;;;;;;;;;;4990658;28;20129;-62
2023/06/06 03:11:10;;;;;;;2.92;1.58;;;;;;;;;;4990709;28;20030;-62
2023/06/06 03:13:36;;;;;;;3.92;1.50;;;;;;;;;;4992425;28;20031;-62
2023/06/06 03:16:01;;;;;;;1.67;1.58;;;;;;;;;;4991008;28;20034;-62
2023/06/06 03:18:28;;;;;;;3.95;1.83;;;;;;;;;;4974974;28;20031;-61
2023/06/06 03:21:01;;;;;;;2.20;1.60;;;;;;;;;;4992440;28;20418;-63
2023/06/06 03:23:32;;;;;;;1.75;1.60;;;;;;;;;;4991111;28;20109;-62
2023/06/06 03:25:58;;;;;;;1.70;1.60;;;;;;;;;;4991077;28;20030;-62
2023/06/06 03:28:23;;;;;;;2.22;1.80;;;;;;;;;;4990808;28;20097;-62
2023/06/06 03:30:51;;;;;;;1.88;1.77;;;;;;;;;;4974572;28;20045;-62
2023/06/06 03:33:17;;;;;;;2.38;1.35;;;;;;;;;;4990664;28;20041;-63
2023/06/06 03:35:43;;;;;;;1.92;1.75;;;;;;;;;;4990687;28;20026;-64
2023/06/06 03:38:08;;;;;;;2.75;1.55;;;;;;;;;;4974223;28;20398;-63
2023/06/06 03:40:34;;;;;;;2.72;1.60;;;;;;;;;;4974400;28;20379;-63
2023/06/06 03:43:01;;;;;;;1.70;1.52;;;;;;;;;;4974443;28;20565;-63
2023/06/06 03:45:27;;;;;;;3.65;1.63;;;;;;;;;;4990224;28;20034;-63
2023/06/06 03:47:52;;;;;;;2.10;1.80;;;;;;;;;;4991040;28;20446;-61
2023/06/06 03:50:19;;;;;;;2.08;1.88;;;;;;;;;;4973887;28;20026;-62
2023/06/06 03:52:45;;;;;;;2.28;1.75;;;;;;;;;;4990752;28;20399;-62
2023/06/06 03:55:10;;;;;;;2.17;1.55;;;;;;;;;;4992047;28;20031;-62
2023/06/06 03:57:37;;;;;;;1.85;1.52;;;;;;;;;;4993817;28;20022;-62
2023/06/06 04:00:10;;;;;;;2.60;1.70;;;;;;;;;;4977980;28;20145;-62
2023/06/06 04:02:38;;;;;;;3.33;1.70;;;;;;;;;;4995474;28;20089;-63
2023/06/06 04:05:04;;;;;;;2.63;1.83;;;;;;;;;;4994276;28;20042;-63
2023/06/06 04:07:31;;;;;;;1.73;1.63;;;;;;;;;;4995136;28;20109;-63
2023/06/06 04:09:57;;;;;;;1.83;1.73;;;;;;;;;;4975383;28;20034;-63
2023/06/06 04:12:22;;;;;;;1.70;1.60;;;;;;;;;;4994742;28;20022;-63
2023/06/06 04:14:47;;;;;;;1.95;1.73;;;;;;;;;;4976513;28;20117;-63
2023/06/06 04:17:13;;;;;;;1.65;1.55;;;;;;;;;;4994421;28;20026;-63
2023/06/06 04:19:39;;;;;;;2.72;1.88;;;;;;;;;;4977157;28;20391;-63
2023/06/06 04:22:05;;;;;;;2.75;1.70;;;;;;;;;;4992856;28;20133;-63
2023/06/06 04:24:30;;;;;;;1.83;1.70;;;;;;;;;;4976351;28;20101;-63
2023/06/06 04:26:57;;;;;;;1.85;1.75;;;;;;;;;;4994156;28;20030;-63
2023/06/06 04:29:23;;;;;;;1.90;1.80;;;;;;;;;;4993724;28;20018;-62
2023/06/06 04:31:48;;;;;;;1.88;1.77;;;;;;;;;;4994087;28;20395;-62
2023/06/06 04:34:16;;;;;;;3.47;1.27;;;;;;;;;;4976739;28;20125;-62
2023/06/06 04:36:44;;;;;;;1.55;1.45;;;;;;;;;;4976756;28;20447;-63
2023/06/06 04:39:10;;;;;;;2.42;1.50;;;;;;;;;;4992434;28;20022;-63
2023/06/06 04:41:36;;;;;;;3.38;1.60;;;;;;;;;;4976602;28;20493;-63
2023/06/06 04:44:02;;;;;;;5.38;2.10;;;;;;;;;;4976372;28;20088;-63
2023/06/06 04:46:31;;;;;;;1.83;1.70;;;;;;;;;;4976703;28;20128;-63
2023/06/06 04:48:56;;;;;;;2.30;2.10;;;;;;;;;;4992376;28;20034;-63
2023/06/06 04:51:23;;;;;;;2.28;1.83;;;;;;;;;;4975356;28;20030;-62
2023/06/06 04:53:50;;;;;;;5.50;1.95;;;;;;;;;;4994137;28;20026;-62
2023/06/06 04:56:17;;;;;;;4.80;2.00;;;;;;;;;;4993385;28;20476;-63
2023/06/06 04:58:43;;;;;;;1.85;1.70;;;;;;;;;;4991984;28;20156;-62
2023/06/06 05:01:10;;;;;;;2.60;2.00;;;;;;;;;;4992939;28;20117;-63
2023/06/06 05:03:36;;;;;;;1.90;1.80;;;;;;;;;;4993525;28;20081;-66
2023/06/06 05:06:02;;;;;;;3.42;1.77;;;;;;;;;;4991936;28;20545;-62
2023/06/06 05:08:31;;;;;;;2.00;1.90;;;;;;;;;;4992817;28;20038;-62
2023/06/06 05:10:57;;;;;;;3.10;2.08;;;;;;;;;;4993034;28;20371;-62
2023/06/06 05:13:22;;;;;;;2.20;2.00;;;;;;;;;;4992750;28;20037;-62
2023/06/06 05:15:47;;;;;;;2.28;2.08;;;;;;;;;;4992905;28;20034;-59
2023/06/06 05:18:13;;;;;;;3.53;2.28;;;;;;;;;;4993690;28;20109;-62
2023/06/06 05:20:38;;;;;;;2.20;2.00;;;;;;;;;;4993804;28;20042;-62
2023/06/06 05:23:06;;;;;;;2.50;2.30;;;;;;;;;;4994688;28;20030;-63
2023/06/06 05:25:31;;;;;;;2.63;2.10;;;;;;;;;;4977279;28;20054;-62
2023/06/06 05:27:57;;;;;;;2.85;1.70;;;;;;;;;;4994012;28;20037;-63
2023/06/06 05:30:22;;;;;;;2.08;1.70;;;;;;;;;;4994276;28;20057;-63
2023/06/06 05:32:48;;;;;;;1.90;1.75;;;;;;;;;;4993271;28;20038;-63
2023/06/06 05:35:13;;;;;;;3.20;2.13;;;;;;;;;;4993004;28;20040;-62
2023/06/06 05:37:41;;;;;;;2.90;1.98;;;;;;;;;;4992691;28;20057;-63
2023/06/06 05:40:07;;;;;;;3.10;1.85;;;;;;;;;;4993076;28;20046;-63
2023/06/06 05:42:33;;;;;;;2.42;2.10;;;;;;;;;;4993305;28;20036;-63
2023/06/06 05:44:58;;;;;;;2.92;2.40;;;;;;;;;;4975368;28;20137;-62
2023/06/06 05:47:23;;;;;;;2.53;1.98;;;;;;;;;;4992952;28;20041;-62
2023/06/06 05:49:48;;;;;;;3.75;2.33;;;;;;;;;;4993141;28;20038;-62
2023/06/06 05:52:15;;;;;;;3.42;2.00;;;;;;;;;;4990914;28;20038;-63
2023/06/06 05:54:40;;;;;;;4.28;2.20;;;;;;;;;;4974268;28;20038;-63
2023/06/06 05:57:17;;;;;;;1.98;1.85;;;;;;;;;;4990682;28;20049;-62
2023/06/06 05:59:42;;;;;;;2.80;1.95;;;;;;;;;;4991151;28;20041;-63
2023/06/06 06:02:07;;;;;;;2.20;2.03;;;;;;;;;;4991211;28;20026;-63
2023/06/06 06:04:33;;;;;;;2.47;2.17;;;;;;;;;;4990840;28;20097;-63
2023/06/06 06:06:58;;;;;;;3.97;2.08;;;;;;;;;;4990981;28;20406;-63
2023/06/06 06:09:23;;;;;;;2.25;2.05;;;;;;;;;;4991049;28;20096;-63
2023/06/06 06:11:48;;;;;;;3.15;2.28;;;;;;;;;;4990794;28;20035;-62
2023/06/06 06:14:14;;;;;;;3.38;2.17;;;;;;;;;;4989385;28;20015;-63
2023/06/06 06:16:39;;;;;;;2.35;2.15;;;;;;;;;;4990533;28;20042;-62
2023/06/06 06:19:05;;;;;;;2.10;2.00;;;;;;;;;;4989291;28;20018;-63
2023/06/06 06:21:32;;;;;;;3.85;2.22;;;;;;;;;;4989515;28;20588;-63
2023/06/06 06:23:57;;;;;;;6.50;2.30;;;;;;;;;;4990757;28;20137;-63
2023/06/06 06:26:22;;;;;;;2.33;2.13;;;;;;;;;;4990661;28;20114;-63
2023/06/06 06:28:53;;;;;;;3.95;2.50;;;;;;;;;;4990640;28;20275;-61
2023/06/06 06:31:18;;;;;;;3.80;2.60;;;;;;;;;;4990606;28;20493;-62
2023/06/06 06:33:43;;;;;;;3.13;2.03;;;;;;;;;;4990288;28;20027;-62
2023/06/06 06:36:09;;;;;;;4.25;2.25;;;;;;;;;;4990300;28;20026;-61
2023/06/06 06:38:36;;;;;;;2.47;2.20;;;;;;;;;;4990626;28;20121;-61
2023/06/06 06:41:01;;;;;;;4.43;2.35;;;;;;;;;;4989196;28;20049;-62
2023/06/06 06:43:27;;;;;;;2.58;2.30;;;;;;;;;;4990533;28;20688;-62
2023/06/06 06:45:58;;;;;;;3.28;2.20;;;;;;;;;;4990686;28;20041;-61
2023/06/06 06:48:24;;;;;;;3.25;2.38;;;;;;;;;;4990799;28;20088;-61
2023/06/06 06:50:49;;;;;;;2.95;1.98;;;;;;;;;;4990197;28;20426;-61
2023/06/06 06:53:16;;;;;;;2.50;2.30;;;;;;;;;;4990450;28;20069;-62
2023/06/06 06:55:44;;;;;;;4.70;1.95;;;;;;;;;;4990159;28;20084;-62
2023/06/06 06:58:09;;;;;;;3.38;3.17;;;;;;;;;;4990955;28;20030;-63
2023/06/06 07:00:35;;;;;;;3.08;2.35;;;;;;;;;;4991225;28;20553;-62
2023/06/06 07:03:03;;;;;;;5.32;2.20;;;;;;;;;;4991063;28;20034;-62
2023/06/06 07:05:29;;;;;;;3.25;2.25;;;;;;;;;;4991340;28;20034;-62
2023/06/06 07:07:55;;;;;;;3.70;2.17;;;;;;;;;;4991201;28;20137;-62
2023/06/06 07:10:22;;;;;;;2.45;2.28;;;;;;;;;;4991314;28;20386;-62
2023/06/06 07:12:48;;;;;;;4.93;2.47;;;;;;;;;;4991286;28;20032;-61
2023/06/06 07:27:10;;;;;;;3.55;2.13;;;;;;;;;;5087442;27;20503;-62
2023/06/06 07:29:36;;;;;;;2.60;2.40;;;;;;;;;;5088118;28;20115;-62
2023/06/06 07:32:02;;;;;;;2.83;2.60;;;;;;;;;;5087155;28;20390;-62
2023/06/06 07:34:27;;;;;;;5.88;2.60;;;;;;;;;;5087753;28;20044;-62
2023/06/06 07:36:55;;;;;;;2.83;2.30;;;;;;;;;;5086623;28;20035;-62
2023/06/06 07:39:20;;;;;;;4.57;3.05;;;;;;;;;;5087140;28;20375;-62
2023/06/06 07:41:45;;;;;;;6.57;2.80;;;;;;;;;;5087308;28;20024;-62
2023/06/06 07:44:11;;;;;;;3.30;2.40;;;;;;;;;;5086362;28;20384;-62
2023/06/06 07:46:36;;;;;;;3.53;2.60;;;;;;;;;;5068346;28;20032;-62
2023/06/06 07:49:01;;;;;;;3.85;2.47;;;;;;;;;;5087131;28;20028;-62
2023/06/06 07:51:28;;;;;;;3.80;2.30;;;;;;;;;;5087012;28;20444;-62
2023/06/06 07:53:53;;;;;;;4.15;2.50;;;;;;;;;;5085275;28;20483;-59
2023/06/06 07:56:20;;;;;;;3.97;2.35;;;;;;;;;;5086800;28;20024;-59
2023/06/06 07:58:55;;;;;;;5.53;2.30;;;;;;;;;;5086895;28;20446;-61
2023/06/06 08:01:23;;;;;;;3.20;2.72;;;;;;;;;;5085128;28;20043;-62
2023/06/06 08:03:50;;;;;;;3.05;2.63;;;;;;;;;;5086814;28;20090;-62
2023/06/06 08:06:19;;;;;;;2.83;2.53;;;;;;;;;;5086326;28;20032;-62
2023/06/06 08:08:51;;;;;;;1.80;1.70;;;;;;;;;;5086325;28;20032;-62
2023/06/06 08:11:17;;;;;;;3.85;2.60;;;;;;;;;;5086183;28;20098;-62
2023/06/06 08:13:42;;;;;;;3.17;2.55;;;;;;;;;;5086533;28;20142;-62
2023/06/06 08:16:08;;;;;;;3.90;2.42;;;;;;;;;;5086087;28;20132;-62
2023/06/06 08:18:37;;;;;;;3.13;2.80;;;;;;;;;;5085689;28;20059;-62
2023/06/06 08:21:02;;;;;;;2.35;2.17;;;;;;;;;;5086115;28;20111;-62
2023/06/06 08:23:28;;;;;;;6.90;3.80;;;;;;;;;;5086523;28;20115;-62
2023/06/06 08:25:55;;;;;;;4.40;2.83;;;;;;;;;;5085620;28;20139;-62
2023/06/06 08:28:21;;;;;;;2.05;1.50;;;;;;;;;;5072105;28;20410;-62
2023/06/06 08:30:46;;;;;;;2.95;2.50;;;;;;;;;;5072622;28;20028;-62
2023/06/06 08:33:12;;;;;;;3.10;2.80;;;;;;;;;;5072586;28;20036;-62
2023/06/06 08:35:37;;;;;;;3.40;2.60;;;;;;;;;;5072275;28;20426;-62
2023/06/06 08:38:02;;;;;;;4.43;2.60;;;;;;;;;;5072470;28;20048;-62
2023/06/06 08:40:28;;;;;;;3.25;2.53;;;;;;;;;;5072314;28;20020;-62
2023/06/06 08:42:55;;;;;;;2.92;2.60;;;;;;;;;;5072533;28;20028;-62
2023/06/06 08:45:21;;;;;;;3.47;2.55;;;;;;;;;;5072166;28;20037;-62
2023/06/06 08:47:47;;;;;;;2.88;2.50;;;;;;;;;;5072246;28;20082;-62
2023/06/06 08:50:12;;;;;;;3.45;2.25;;;;;;;;;;5070741;28;20487;-62
2023/06/06 08:52:39;;;;;;;2.65;2.42;;;;;;;;;;5072023;28;20105;-62
2023/06/06 08:55:04;;;;;;;5.53;2.60;;;;;;;;;;5071992;28;20035;-62
2023/06/06 08:57:30;;;;;;;3.80;2.40;;;;;;;;;;5072085;28;20390;-62
2023/06/06 08:59:56;;;;;;;2.38;2.25;;;;;;;;;;5070793;28;20040;-62
2023/06/06 09:02:22;;;;;;;3.13;2.58;;;;;;;;;;5072529;28;20039;-62
2023/06/06 09:04:48;;;;;;;3.95;2.60;;;;;;;;;;5071850;28;20119;-62
2023/06/06 09:07:14;;;;;;;3.50;2.40;;;;;;;;;;5071804;28;20135;-62
2023/06/06 09:09:40;;;;;;;3.20;2.70;;;;;;;;;;5072075;28;20081;-62
2023/06/06 09:12:09;;;;;;;2.78;2.58;;;;;;;;;;5072099;28;20530;-62
2023/06/06 09:14:34;;;;;;;3.20;2.42;;;;;;;;;;5071812;28;20483;-62
2023/06/06 09:17:00;;;;;;;4.55;2.47;;;;;;;;;;5071554;28;20043;-62
2023/06/06 09:19:26;;;;;;;3.60;2.20;;;;;;;;;;5069611;28;20029;-62
2023/06/06 09:21:51;;;;;;;2.58;1.60;;;;;;;;;;5071685;28;20145;-62
2023/06/06 09:24:17;;;;;;;3.25;2.22;;;;;;;;;;5071543;28;20119;-62
2023/06/06 09:26:42;;;;;;;2.72;2.20;;;;;;;;;;5070734;28;20036;-59
2023/06/06 09:29:08;;;;;;;5.57;2.35;;;;;;;;;;5071623;28;20546;-59
2023/06/06 09:31:37;;;;;;;4.43;2.30;;;;;;;;;;5071553;28;20032;-59
2023/06/06 09:34:03;;;;;;;2.85;1.52;;;;;;;;;;5071285;28;20052;-59
2023/06/06 09:36:28;;;;;;;2.13;2.03;;;;;;;;;;5070667;28;20471;-59
2023/06/06 09:39:11;;;;;;;2.05;1.75;;;;;;;;;;5070560;28;20036;-59
2023/06/06 09:41:41;;;;;;;1.58;1.45;;;;;;;;;;5071624;28;20430;-59
2023/06/06 09:44:28;;;;;;;3.85;2.05;;;;;;;;;;5071173;28;20449;-59
2023/06/06 09:47:06;;;;;;;4.68;2.60;;;;;;;;;;5070746;28;20052;-59
2023/06/06 09:49:35;;;;;;;3.13;2.13;;;;;;;;;;5070983;28;20097;-61
2023/06/06 09:52:00;;;;;;;3.50;2.33;;;;;;;;;;5071176;28;20064;-62
2023/06/06 09:54:25;;;;;;;5.40;1.95;;;;;;;;;;5069916;28;20052;-62
2023/06/06 09:56:51;;;;;;;2.97;2.50;;;;;;;;;;5070739;28;20082;-59
2023/06/06 09:59:18;;;;;;;6.50;2.75;;;;;;;;;;5069336;28;20025;-59
2023/06/06 10:01:45;;;;;;;2.33;1.80;;;;;;;;;;5071022;28;20103;-59
2023/06/06 10:04:10;;;;;;;3.55;2.42;;;;;;;;;;5070558;28;20087;-59
2023/06/06 10:06:38;;;;;;;3.75;2.47;;;;;;;;;;5070430;28;20551;-59
2023/06/06 10:09:05;;;;;;;3.67;2.70;;;;;;;;;;5070646;28;20116;-59
2023/06/06 10:11:31;;;;;;;2.85;2.40;;;;;;;;;;5070520;28;20147;-62
2023/06/06 10:13:58;;;;;;;3.22;2.85;;;;;;;;;;5070438;28;20038;-62
2023/06/06 10:16:25;;;;;;;4.47;2.65;;;;;;;;;;5070620;28;20056;-62
2023/06/06 10:18:52;;;;;;;3.08;2.42;;;;;;;;;;5068863;28;20032;-62
2023/06/06 10:24:53;;;;;;;4.13;2.40;;;;;;;;;;5069789;28;20062;-62
2023/06/06 10:27:20;;;;;;;3.47;2.72;;;;;;;;;;5069909;28;20556;-59
2023/06/06 10:29:49;;;;;;;2.75;2.50;;;;;;;;;;5070387;28;20035;-59
2023/06/06 10:32:17;;;;;;;4.10;2.45;;;;;;;;;;5070148;28;20396;-59
2023/06/06 10:34:46;;;;;;;3.25;2.50;;;;;;;;;;5070108;28;20024;-59
2023/06/06 10:37:15;;;;;;;5.82;2.70;;;;;;;;;;5070091;28;20029;-59
2023/06/06 10:39:45;;;;;;;3.42;2.45;;;;;;;;;;5070817;28;20044;-59
2023/06/06 10:42:11;;;;;;;2.58;2.28;;;;;;;;;;5070649;28;20037;-59
2023/06/06 10:44:45;;;;;;;5.78;2.97;;;;;;;;;;5070230;28;20396;-59
2023/06/06 10:47:20;;;;;;;2.47;2.28;;;;;;;;;;5070231;28;20033;-59
2023/06/06 10:50:04;;;;;;;3.38;2.40;;;;;;;;;;5069638;28;20468;-59
2023/06/06 10:52:29;;;;;;;3.20;2.05;;;;;;;;;;5070229;28;20056;-59
2023/06/06 10:54:57;;;;;;;3.38;1.85;;;;;;;;;;5070123;28;20091;-59
2023/06/06 10:57:22;;;;;;;2.35;2.10;;;;;;;;;;5070092;28;20028;-59
2023/06/06 10:59:49;;;;;;;3.15;2.15;;;;;;;;;;5068581;28;20085;-62
2023/06/06 11:02:31;;;;;;;1.55;1.45;;;;;;;;;;5070019;28;20071;-62
2023/06/06 11:05:00;;;;;;;2.67;2.17;;;;;;;;;;5052016;28;20032;-62
2023/06/06 11:07:31;;;;;;;2.85;2.47;;;;;;;;;;5069309;28;20031;-62
2023/06/06 11:09:56;;;;;;;4.72;2.13;;;;;;;;;;5069884;28;20043;-62
2023/06/06 11:12:23;;;;;;;3.22;2.35;;;;;;;;;;5069770;28;20433;-62
2023/06/06 11:14:55;;;;;;;1.42;0.98;;;;;;;;;;5051751;28;20391;-62
2023/06/06 11:17:21;;;;;;;2.20;1.88;;;;;;;;;;5069685;28;20043;-62
2023/06/06 11:19:50;;;;;;;2.20;2.00;;;;;;;;;;5069457;28;20386;-59
2023/06/06 11:22:20;;;;;;;2.90;2.08;;;;;;;;;;5069684;28;20119;-59
2023/06/06 11:24:45;;;;;;;4.30;2.20;;;;;;;;;;5069817;28;20094;-60
2023/06/06 11:27:10;;;;;;;3.50;2.42;;;;;;;;;;5069240;28;20476;-59
2023/06/06 11:29:36;;;;;;;2.22;2.00;;;;;;;;;;5069504;28;20040;-62
2023/06/06 11:32:03;;;;;;;3.10;1.85;;;;;;;;;;5068272;28;20029;-62
2023/06/06 11:34:32;;;;;;;2.85;2.50;;;;;;;;;;5068601;28;20456;-62
2023/06/06 11:36:58;;;;;;;2.92;2.20;;;;;;;;;;5068731;28;20032;-62
2023/06/06 11:39:27;;;;;;;2.05;1.95;;;;;;;;;;5070247;28;20016;-62
2023/06/06 11:41:52;;;;;;;4.50;2.03;;;;;;;;;;5069952;28;20029;-62
2023/06/06 11:44:17;;;;;;;3.22;2.30;;;;;;;;;;5070253;28;20025;-62
2023/06/06 11:46:44;;;;;;;2.85;2.00;;;;;;;;;;5068465;28;20117;-62
2023/06/06 11:49:10;;;;;;;3.13;2.40;;;;;;;;;;5069925;28;20455;-62
2023/06/06 11:51:36;;;;;;;3.10;1.90;;;;;;;;;;5070000;28;20110;-60
2023/06/06 11:54:15;;;;;;;10.60;2.92;;;;;;;;;;5070188;28;20392;-60
2023/06/06 11:56:40;;;;;;;2.35;2.25;;;;;;;;;;5068279;28;20041;-60
2023/06/06 11:59:06;;;;;;;4.57;2.80;;;;;;;;;;5070218;28;20028;-60
2023/06/06 12:01:31;;;;;;;2.60;2.47;;;;;;;;;;5070807;28;20037;-60
2023/06/06 12:03:57;;;;;;;3.60;2.38;;;;;;;;;;5073801;28;20036;-60
2023/06/06 12:06:22;;;;;;;3.92;2.72;;;;;;;;;;5073903;28;20456;-60
2023/06/06 12:08:48;;;;;;;4.18;2.60;;;;;;;;;;5072949;28;20400;-60
2023/06/06 12:11:23;;;;;;;3.45;2.38;;;;;;;;;;5073055;28;20090;-60
2023/06/06 12:13:48;;;;;;;3.25;2.95;;;;;;;;;;5074004;28;20043;-59
2023/06/06 12:16:23;;;;;;;5.10;2.55;;;;;;;;;;5073734;28;20028;-60
2023/06/06 12:18:51;;;;;;;5.43;3.03;;;;;;;;;;5072815;28;20036;-60
2023/06/06 12:21:16;;;;;;;4.35;2.67;;;;;;;;;;5071631;28;20016;-60
2023/06/06 12:23:45;;;;;;;4.10;2.88;;;;;;;;;;5072979;28;20033;-60
2023/06/06 12:26:12;;;;;;;4.68;2.60;;;;;;;;;;5072849;28;20141;-60
2023/06/06 12:28:53;;;;;;;3.25;2.90;;;;;;;;;;5072911;28;20032;-60
2023/06/06 12:31:19;;;;;;;6.13;3.25;;;;;;;;;;5072968;28;20147;-62
2023/06/06 12:33:45;;;;;;;4.07;2.97;;;;;;;;;;5072782;28;20786;-63
2023/06/06 12:36:13;;;;;;;4.15;3.05;;;;;;;;;;5073207;28;20040;-62
2023/06/06 12:38:39;;;;;;;3.53;2.30;;;;;;;;;;5072830;28;20033;-62
2023/06/06 12:41:04;;;;;;;7.25;3.38;;;;;;;;;;5071919;28;20016;-62
2023/06/06 12:43:30;;;;;;;5.13;2.15;;;;;;;;;;5071281;28;20121;-62
2023/06/06 12:45:55;;;;;;;3.00;2.58;;;;;;;;;;5072542;28;20051;-62
2023/06/06 12:48:22;;;;;;;4.72;3.00;;;;;;;;;;5072329;28;20546;-62
2023/06/06 12:50:49;;;;;;;3.40;3.10;;;;;;;;;;5072240;28;20114;-62
2023/06/06 12:53:14;;;;;;;5.28;3.35;;;;;;;;;;5071636;28;20530;-62
2023/06/06 12:55:43;;;;;;;3.60;3.30;;;;;;;;;;5071949;28;20032;-62
2023/06/06 12:58:09;;;;;;;4.03;3.70;;;;;;;;;;5070361;28;20529;-62
2023/06/06 13:00:34;;;;;;;3.88;3.53;;;;;;;;;;5070456;28;20393;-62
2023/06/06 13:03:00;;;;;;;4.07;3.70;;;;;;;;;;5072226;28;20370;-63
2023/06/06 13:05:25;;;;;;;5.03;3.53;;;;;;;;;;5072387;28;20036;-63
2023/06/06 13:07:51;;;;;;;4.25;3.58;;;;;;;;;;5072375;28;20043;-63
2023/06/06 13:10:17;;;;;;;3.83;3.00;;;;;;;;;;5072461;28;20016;-63
2023/06/06 13:12:42;;;;;;;5.35;3.67;;;;;;;;;;5071680;28;20038;-63
2023/06/06 13:15:11;;;;;;;7.20;3.40;;;;;;;;;;5071273;28;20391;-63
2023/06/06 13:17:36;;;;;;;6.15;3.67;;;;;;;;;;5072246;28;20021;-63
2023/06/06 13:20:03;;;;;;;6.68;4.05;;;;;;;;;;5072672;28;20024;-64
2023/06/06 13:22:29;;;;;;;5.20;3.88;;;;;;;;;;5072266;28;20046;-64
2023/06/06 13:24:54;;;;;;;4.35;3.55;;;;;;;;;;5070771;28;20028;-64
2023/06/06 13:27:21;;;;;;;6.57;3.85;;;;;;;;;;5071960;28;20040;-63
2023/06/06 13:29:47;;;;;;;4.03;3.47;;;;;;;;;;5071889;28;20032;-63
2023/06/06 13:32:13;;;;;;;4.40;3.85;;;;;;;;;;5072524;28;20028;-64
2023/06/06 13:34:39;;;;;;;5.78;3.95;;;;;;;;;;5071983;28;20025;-63
2023/06/06 13:37:04;;;;;;;4.32;3.92;;;;;;;;;;5071007;28;20569;-64
2023/06/06 13:39:30;;;;;;;7.93;4.20;;;;;;;;;;5071683;28;20064;-63
2023/06/06 13:41:56;;;;;;;4.07;3.72;;;;;;;;;;5071990;28;20036;-63
2023/06/06 13:44:21;;;;;;;6.20;4.50;;;;;;;;;;5072003;28;20048;-63
2023/06/06 13:46:47;;;;;;;5.22;4.68;;;;;;;;;;5072110;28;20454;-63
2023/06/06 13:49:13;;;;;;;5.25;4.05;;;;;;;;;;5071806;28;20506;-63
2023/06/06 13:51:39;;;;;;;6.57;3.88;;;;;;;;;;5071763;28;20107;-64
2023/06/06 13:54:05;;;;;;;6.18;4.03;;;;;;;;;;5069969;28;20043;-64
2023/06/06 13:56:34;;;;;;;5.28;4.25;;;;;;;;;;5070583;28;20036;-64
2023/06/06 13:58:59;;;;;;;5.85;4.60;;;;;;;;;;5070585;28;20025;-64
2023/06/06 14:01:25;;;;;;;7.10;4.38;;;;;;;;;;5071703;28;20081;-64
2023/06/06 14:03:51;;;;;;;6.10;4.97;;;;;;;;;;5071652;28;20043;-64
2023/06/06 14:06:18;;;;;;;6.20;4.70;;;;;;;;;;5071561;28;20051;-64
2023/06/06 14:08:44;;;;;;;7.18;4.30;;;;;;;;;;5068795;28;20032;-64
2023/06/06 14:11:12;;;;;;;6.03;4.05;;;;;;;;;;5071383;28;20040;-64
2023/06/06 14:13:39;;;;;;;5.40;4.90;;;;;;;;;;5071219;28;20483;-64
2023/06/06 14:16:04;;;;;;;6.75;4.20;;;;;;;;;;5069773;28;20029;-64
2023/06/06 14:18:29;;;;;;;5.40;4.18;;;;;;;;;;5071292;28;20108;-64
2023/06/06 14:21:19;;;;;;;8.32;4.60;;;;;;;;;;5071391;28;20059;-64
2023/06/06 14:23:48;;;;;;;5.05;4.53;;;;;;;;;;5071595;28;20037;-64
2023/06/06 14:26:17;;;;;;;7.72;4.45;;;;;;;;;;5070964;28;20053;-64
2023/06/06 14:28:43;;;;;;;5.32;4.07;;;;;;;;;;5071367;28;20044;-64
2023/06/06 14:31:09;;;;;;;5.70;4.47;;;;;;;;;;5070104;28;20028;-64
2023/06/06 14:33:34;;;;;;;5.90;4.53;;;;;;;;;;5069957;28;20085;-63
2023/06/06 14:36:03;;;;;;;6.75;4.72;;;;;;;;;;5071898;28;20039;-63
2023/06/06 14:38:29;;;;;;;5.47;4.93;;;;;;;;;;5070950;28;20029;-64
2023/06/06 14:40:55;;;;;;;5.70;4.65;;;;;;;;;;5071324;28;20424;-64
2023/06/06 14:43:21;;;;;;;7.50;4.97;;;;;;;;;;5069771;28;20028;-64
2023/06/06 14:45:46;;;;;;;5.53;4.90;;;;;;;;;;5069875;28;20039;-63
2023/06/06 14:48:11;;;;;;;5.07;4.50;;;;;;;;;;5071034;28;20082;-64
2023/06/06 14:50:39;;;;;;;9.98;4.07;;;;;;;;;;5070924;28;20601;-63
2023/06/06 14:53:04;;;;;;;4.07;3.67;;;;;;;;;;5069954;28;20178;-63
2023/06/06 14:55:31;;;;;;;4.68;3.92;;;;;;;;;;5070630;28;20567;-63